Time;durP1;ratioP1;P1;durP2;ratioP2;P2;SDS_P1;SDS_P2;PMS_P1;PMS_P2;Temp;Humidity;BMP_temperature;BMP_pressure;BME280_temperature;BME280_humidity;BME280_pressure;Samples;Min_cycle;Max_cycle;Signal;HPM_P1;HPM_P2
2021/06/29 00:00:42;;;;;;;126.90;42.63;;;;;;;;;;4991161;28;20030;-65
2021/06/29 00:03:08;;;;;;;94.32;40.72;;;;;;;;;;4987558;28;20120;-65
2021/06/29 00:05:36;;;;;;;76.88;38.95;;;;;;;;;;4989216;28;20027;-65
2021/06/29 00:08:02;;;;;;;78.90;36.97;;;;;;;;;;4990904;28;20044;-65
2021/06/29 00:10:29;;;;;;;75.28;35.15;;;;;;;;;;4988962;28;20022;-65
2021/06/29 00:12:55;;;;;;;91.20;40.25;;;;;;;;;;4988356;28;20064;-65
2021/06/29 00:15:22;;;;;;;85.30;40.35;;;;;;;;;;5008667;28;20022;-65
2021/06/29 00:17:48;;;;;;;88.60;39.47;;;;;;;;;;4990076;28;20093;-65
2021/06/29 00:20:15;;;;;;;91.82;46.58;;;;;;;;;;4989679;28;20072;-65
2021/06/29 00:22:41;;;;;;;102.15;48.90;;;;;;;;;;4987384;28;20535;-65
2021/06/29 00:25:08;;;;;;;95.88;49.35;;;;;;;;;;4989095;28;20151;-64
2021/06/29 00:27:52;;;;;;;133.35;52.13;;;;;;;;;;4990838;28;20035;-65
2021/06/29 00:30:19;;;;;;;101.18;61.58;;;;;;;;;;4987872;28;20124;-65
2021/06/29 00:32:45;;;;;;;87.28;61.22;;;;;;;;;;4984405;28;20037;-66
2021/06/29 00:35:11;;;;;;;105.00;67.32;;;;;;;;;;4992571;28;20026;-65
2021/06/29 00:37:38;;;;;;;91.93;67.50;;;;;;;;;;4990357;28;20051;-65
2021/06/29 00:40:05;;;;;;;94.28;66.53;;;;;;;;;;4988967;28;20525;-65
2021/06/29 00:42:31;;;;;;;104.45;67.80;;;;;;;;;;4985968;28;20149;-65
2021/06/29 00:44:58;;;;;;;107.00;70.68;;;;;;;;;;4975448;28;20027;-65
2021/06/29 00:47:24;;;;;;;96.07;73.40;;;;;;;;;;4984798;28;20053;-64
2021/06/29 00:49:50;;;;;;;87.90;62.22;;;;;;;;;;4987752;28;20076;-65
2021/06/29 00:52:16;;;;;;;89.75;56.47;;;;;;;;;;4987608;28;20405;-65
2021/06/29 00:54:42;;;;;;;96.28;64.40;;;;;;;;;;4988333;28;20026;-65
2021/06/29 00:57:10;;;;;;;118.30;76.30;;;;;;;;;;4988950;28;20027;-65
2021/06/29 00:59:39;;;;;;;97.13;67.55;;;;;;;;;;4990527;28;20717;-65
2021/06/29 01:02:05;;;;;;;114.82;71.05;;;;;;;;;;4989723;28;20099;-65
2021/06/29 01:04:35;;;;;;;105.72;71.13;;;;;;;;;;4988561;28;20064;-65
2021/06/29 01:07:01;;;;;;;105.70;62.63;;;;;;;;;;4988933;28;20144;-65
2021/06/29 01:09:27;;;;;;;104.80;67.18;;;;;;;;;;4987482;28;20539;-65
2021/06/29 01:11:53;;;;;;;108.95;65.00;;;;;;;;;;4983673;28;20048;-65
2021/06/29 01:14:19;;;;;;;107.22;66.28;;;;;;;;;;4988986;28;20038;-65
2021/06/29 01:16:45;;;;;;;108.35;70.47;;;;;;;;;;4988675;28;20507;-66
2021/06/29 01:19:14;;;;;;;101.82;64.40;;;;;;;;;;4988868;28;20030;-65
2021/06/29 01:21:42;;;;;;;97.55;64.10;;;;;;;;;;4986798;28;20033;-65
2021/06/29 01:24:09;;;;;;;129.43;67.55;;;;;;;;;;4989536;28;20030;-66
2021/06/29 01:26:40;;;;;;;100.50;68.53;;;;;;;;;;4988717;28;20026;-65
2021/06/29 01:29:06;;;;;;;98.25;69.90;;;;;;;;;;4988445;28;20176;-65
2021/06/29 01:31:33;;;;;;;124.50;79.65;;;;;;;;;;4987257;28;20022;-65
2021/06/29 01:33:59;;;;;;;135.10;84.82;;;;;;;;;;4988806;28;20037;-65
2021/06/29 01:36:27;;;;;;;136.00;88.78;;;;;;;;;;4988659;28;20022;-66
2021/06/29 01:38:53;;;;;;;106.35;81.47;;;;;;;;;;4988305;28;20066;-66
2021/06/29 01:41:22;;;;;;;103.47;82.35;;;;;;;;;;4984260;28;20027;-65
2021/06/29 01:46:16;;;;;;;153.90;93.90;;;;;;;;;;4988497;28;20062;-65
2021/06/29 01:48:49;;;;;;;110.68;97.95;;;;;;;;;;4984893;28;20033;-65
2021/06/29 01:51:15;;;;;;;141.10;97.20;;;;;;;;;;4985038;28;20095;-66
2021/06/29 01:53:42;;;;;;;153.75;97.78;;;;;;;;;;4992809;28;20026;-66
2021/06/29 01:56:14;;;;;;;168.25;106.97;;;;;;;;;;4988733;28;20030;-65
2021/06/29 01:58:41;;;;;;;177.52;107.38;;;;;;;;;;4987984;28;20080;-65
2021/06/29 02:01:08;;;;;;;136.32;108.50;;;;;;;;;;4990356;28;20109;-65
2021/06/29 02:03:34;;;;;;;197.48;115.20;;;;;;;;;;4989383;28;20014;-65
2021/06/29 02:06:00;;;;;;;149.60;105.18;;;;;;;;;;4990019;28;20420;-65
2021/06/29 02:08:26;;;;;;;126.10;112.82;;;;;;;;;;4988146;28;20586;-65
2021/06/29 02:10:52;;;;;;;132.88;114.20;;;;;;;;;;4988127;28;20019;-65
2021/06/29 02:13:18;;;;;;;135.50;121.63;;;;;;;;;;4987645;28;20052;-65
2021/06/29 02:15:44;;;;;;;122.45;109.25;;;;;;;;;;4988040;28;20079;-66
2021/06/29 02:18:10;;;;;;;150.00;119.43;;;;;;;;;;4988705;28;20109;-66
2021/06/29 02:20:36;;;;;;;145.95;111.43;;;;;;;;;;4987648;28;20030;-66
2021/06/29 02:23:02;;;;;;;136.20;121.20;;;;;;;;;;4987471;28;20018;-65
2021/06/29 02:25:28;;;;;;;140.55;127.20;;;;;;;;;;4986915;28;20030;-66
2021/06/29 02:27:55;;;;;;;136.27;123.25;;;;;;;;;;4987727;28;20030;-65
2021/06/29 02:30:21;;;;;;;113.00;102.00;;;;;;;;;;4988349;28;20477;-66
2021/06/29 02:32:47;;;;;;;135.73;121.00;;;;;;;;;;4985741;28;20050;-65
2021/06/29 02:35:13;;;;;;;119.20;107.43;;;;;;;;;;4985331;28;20512;-65
2021/06/29 02:37:39;;;;;;;129.52;117.57;;;;;;;;;;4987105;28;20047;-66
2021/06/29 02:40:08;;;;;;;130.10;117.10;;;;;;;;;;4989114;28;20451;-66
2021/06/29 02:42:35;;;;;;;141.07;127.43;;;;;;;;;;4985958;28;20080;-66
2021/06/29 02:45:06;;;;;;;127.25;114.38;;;;;;;;;;4986888;28;20031;-66
2021/06/29 02:47:32;;;;;;;127.40;112.45;;;;;;;;;;4986639;28;20478;-66
2021/06/29 02:49:59;;;;;;;136.55;117.20;;;;;;;;;;4986073;28;20405;-65
2021/06/29 02:52:25;;;;;;;138.68;124.45;;;;;;;;;;4986698;28;20027;-66
2021/06/29 02:54:51;;;;;;;139.07;124.75;;;;;;;;;;4990172;28;20110;-66
2021/06/29 02:57:17;;;;;;;142.75;127.65;;;;;;;;;;4987226;28;20050;-66
2021/06/29 02:59:43;;;;;;;148.00;132.07;;;;;;;;;;4987033;28;20038;-66
2021/06/29 03:02:09;;;;;;;148.40;125.10;;;;;;;;;;4986950;28;20053;-66
2021/06/29 03:04:35;;;;;;;140.52;126.57;;;;;;;;;;4990350;28;20042;-66
2021/06/29 03:07:01;;;;;;;136.57;122.32;;;;;;;;;;4990943;28;20083;-66
2021/06/29 03:09:27;;;;;;;119.30;107.43;;;;;;;;;;4990428;28;20527;-66
2021/06/29 03:11:53;;;;;;;122.00;100.25;;;;;;;;;;4989144;28;20023;-66
2021/06/29 03:14:19;;;;;;;131.60;118.65;;;;;;;;;;4994589;28;20025;-66
2021/06/29 03:16:45;;;;;;;117.25;105.00;;;;;;;;;;4988592;28;20038;-66
2021/06/29 03:19:11;;;;;;;121.00;107.70;;;;;;;;;;4990165;28;20504;-66
2021/06/29 03:21:37;;;;;;;121.07;94.10;;;;;;;;;;4990528;28;20035;-66
2021/06/29 03:24:04;;;;;;;105.03;81.97;;;;;;;;;;4989430;28;20023;-66
2021/06/29 03:26:30;;;;;;;109.93;98.05;;;;;;;;;;4990759;28;20042;-66
2021/06/29 03:28:56;;;;;;;104.53;93.22;;;;;;;;;;4990603;28;20573;-66
2021/06/29 03:31:22;;;;;;;106.00;84.15;;;;;;;;;;4989434;28;20031;-66
2021/06/29 03:33:48;;;;;;;111.68;79.82;;;;;;;;;;4989124;28;20026;-66
2021/06/29 03:36:14;;;;;;;96.90;78.35;;;;;;;;;;4990620;28;20018;-66
2021/06/29 03:38:40;;;;;;;105.10;75.22;;;;;;;;;;4994575;28;20057;-66
2021/06/29 03:41:07;;;;;;;127.63;76.95;;;;;;;;;;4990272;28;20351;-66
2021/06/29 03:43:36;;;;;;;103.38;79.68;;;;;;;;;;4988951;28;20026;-66
2021/06/29 03:46:02;;;;;;;137.63;97.88;;;;;;;;;;4987595;28;20113;-66
2021/06/29 03:48:28;;;;;;;106.45;94.88;;;;;;;;;;4990960;28;20516;-66
2021/06/29 03:50:54;;;;;;;114.78;89.95;;;;;;;;;;4989512;28;20029;-66
2021/06/29 03:53:20;;;;;;;78.13;69.45;;;;;;;;;;4988603;28;20034;-66
2021/06/29 03:55:46;;;;;;;97.82;87.20;;;;;;;;;;4985632;28;20018;-66
2021/06/29 03:58:12;;;;;;;102.35;91.97;;;;;;;;;;4986729;28;20019;-66
2021/06/29 04:00:38;;;;;;;96.95;83.55;;;;;;;;;;4988414;28;20073;-66
2021/06/29 04:03:04;;;;;;;95.22;81.18;;;;;;;;;;4988436;28;20099;-65
2021/06/29 04:05:30;;;;;;;93.65;83.60;;;;;;;;;;4992170;28;20030;-66
2021/06/29 04:07:56;;;;;;;93.95;70.35;;;;;;;;;;4985456;28;20031;-66
2021/06/29 04:10:23;;;;;;;78.85;60.75;;;;;;;;;;4997255;28;20026;-66
2021/06/29 04:12:49;;;;;;;70.45;60.10;;;;;;;;;;4986364;28;20022;-65
2021/06/29 04:15:15;;;;;;;78.30;58.00;;;;;;;;;;4990075;28;20035;-65
2021/06/29 04:17:41;;;;;;;82.20;56.33;;;;;;;;;;4988708;28;20060;-65
2021/06/29 04:20:08;;;;;;;65.65;55.75;;;;;;;;;;4990633;28;20021;-66
2021/06/29 04:22:34;;;;;;;66.97;51.85;;;;;;;;;;4988236;28;20031;-65
2021/06/29 04:25:00;;;;;;;69.88;51.97;;;;;;;;;;4991390;28;20096;-65
2021/06/29 04:27:27;;;;;;;73.32;52.15;;;;;;;;;;4988538;28;20027;-65
2021/06/29 04:29:53;;;;;;;64.88;53.17;;;;;;;;;;4991254;28;20018;-66
2021/06/29 04:32:19;;;;;;;77.35;55.53;;;;;;;;;;4986028;28;20826;-66
2021/06/29 04:34:45;;;;;;;71.75;55.67;;;;;;;;;;4987849;28;20486;-65
2021/06/29 04:37:11;;;;;;;74.32;52.40;;;;;;;;;;4989051;28;20047;-66
2021/06/29 04:39:38;;;;;;;78.00;50.33;;;;;;;;;;4989392;28;20030;-65
2021/06/29 04:42:04;;;;;;;87.65;51.50;;;;;;;;;;4993359;28;20022;-65
2021/06/29 04:44:30;;;;;;;77.13;56.78;;;;;;;;;;4989025;28;20544;-65
2021/06/29 04:46:57;;;;;;;78.88;53.85;;;;;;;;;;4986441;28;20037;-66
2021/06/29 04:49:27;;;;;;;67.53;50.10;;;;;;;;;;4983205;28;20019;-65
2021/06/29 04:51:53;;;;;;;65.00;46.25;;;;;;;;;;4983019;28;20038;-65
2021/06/29 04:54:20;;;;;;;59.33;42.28;;;;;;;;;;4981675;28;20058;-66
2021/06/29 04:56:46;;;;;;;67.47;49.45;;;;;;;;;;4975653;28;20030;-66
2021/06/29 04:59:12;;;;;;;71.45;49.30;;;;;;;;;;4979554;28;20503;-66
2021/06/29 05:01:38;;;;;;;68.53;48.03;;;;;;;;;;4982721;28;20512;-66
2021/06/29 05:04:04;;;;;;;58.22;47.05;;;;;;;;;;4976851;28;20031;-66
2021/06/29 05:06:30;;;;;;;59.70;48.88;;;;;;;;;;4977490;28;20038;-65
2021/06/29 05:08:56;;;;;;;69.43;50.17;;;;;;;;;;4981254;28;20027;-65
2021/06/29 05:11:22;;;;;;;58.45;42.72;;;;;;;;;;4986312;28;20085;-66
2021/06/29 05:13:48;;;;;;;55.80;40.17;;;;;;;;;;4982677;28;20034;-65
2021/06/29 05:16:14;;;;;;;62.53;42.80;;;;;;;;;;4983834;28;20490;-65
2021/06/29 05:18:40;;;;;;;55.72;40.53;;;;;;;;;;4988424;28;20117;-66
2021/06/29 05:21:06;;;;;;;53.50;36.22;;;;;;;;;;4981888;28;20037;-65
2021/06/29 05:23:32;;;;;;;54.72;40.42;;;;;;;;;;4981019;28;20014;-65
2021/06/29 05:25:58;;;;;;;60.45;41.30;;;;;;;;;;4981842;28;20102;-65
2021/06/29 05:28:24;;;;;;;58.92;38.70;;;;;;;;;;4980027;28;20033;-65
2021/06/29 05:30:51;;;;;;;58.80;41.13;;;;;;;;;;4978942;28;20033;-64
2021/06/29 05:33:17;;;;;;;63.00;38.38;;;;;;;;;;4981922;28;20034;-65
2021/06/29 05:35:44;;;;;;;53.22;34.70;;;;;;;;;;4987191;28;20026;-65
2021/06/29 05:38:10;;;;;;;56.90;35.65;;;;;;;;;;4983188;28;20041;-65
2021/06/29 05:40:36;;;;;;;49.35;34.97;;;;;;;;;;4982469;28;20118;-65
2021/06/29 05:43:02;;;;;;;50.30;33.63;;;;;;;;;;4985836;28;20034;-65
2021/06/29 05:45:29;;;;;;;63.08;38.10;;;;;;;;;;4983333;28;20068;-64
2021/06/29 05:47:56;;;;;;;53.15;35.65;;;;;;;;;;4984904;28;20031;-65
2021/06/29 05:50:22;;;;;;;59.65;40.83;;;;;;;;;;4986360;28;20031;-65
2021/06/29 05:52:48;;;;;;;67.20;42.40;;;;;;;;;;4982948;28;20038;-64
2021/06/29 05:55:14;;;;;;;64.75;46.85;;;;;;;;;;4981764;28;20030;-64
2021/06/29 05:57:40;;;;;;;68.10;50.25;;;;;;;;;;4981637;28;20096;-65
2021/06/29 06:10:54;;;;;;;67.72;53.03;;;;;;;;;;5147695;27;20115;-66
2021/06/29 06:13:20;;;;;;;60.70;52.38;;;;;;;;;;5133475;27;20509;-64
2021/06/29 06:15:47;;;;;;;59.53;51.15;;;;;;;;;;5139741;27;20047;-64
2021/06/29 06:18:13;;;;;;;59.83;44.95;;;;;;;;;;5139501;27;20034;-64
2021/06/29 06:20:39;;;;;;;63.42;45.75;;;;;;;;;;5137666;27;20031;-64
2021/06/29 06:23:05;;;;;;;63.15;47.13;;;;;;;;;;5135733;27;20031;-64
2021/06/29 06:25:32;;;;;;;59.72;45.90;;;;;;;;;;5137224;27;20019;-64
2021/06/29 06:27:58;;;;;;;58.85;45.63;;;;;;;;;;5137480;27;20011;-64
2021/06/29 06:30:24;;;;;;;55.20;45.35;;;;;;;;;;5136685;27;20034;-63
2021/06/29 06:32:50;;;;;;;58.83;47.05;;;;;;;;;;5134054;27;20038;-63
2021/06/29 06:35:16;;;;;;;60.03;53.38;;;;;;;;;;5134636;27;20081;-64
2021/06/29 06:37:43;;;;;;;64.35;56.35;;;;;;;;;;5121846;27;20046;-64
2021/06/29 06:40:09;;;;;;;64.30;56.78;;;;;;;;;;5136519;27;20038;-63
2021/06/29 06:42:35;;;;;;;76.72;62.97;;;;;;;;;;5138302;27;20027;-64
2021/06/29 06:45:01;;;;;;;85.50;70.93;;;;;;;;;;5140342;27;20019;-63
2021/06/29 06:47:27;;;;;;;79.38;71.45;;;;;;;;;;5141783;27;21309;-63
2021/06/29 06:49:53;;;;;;;79.90;71.63;;;;;;;;;;5136690;27;20037;-63
2021/06/29 06:52:19;;;;;;;77.20;69.45;;;;;;;;;;5134900;27;20099;-63
2021/06/29 06:54:45;;;;;;;73.90;66.22;;;;;;;;;;5138584;27;20027;-63
2021/06/29 06:57:12;;;;;;;75.00;67.07;;;;;;;;;;5139421;27;20027;-63
2021/06/29 06:59:38;;;;;;;82.50;67.47;;;;;;;;;;5138797;27;20080;-63
2021/06/29 07:02:05;;;;;;;70.47;62.92;;;;;;;;;;5137957;27;20027;-63
2021/06/29 07:04:31;;;;;;;71.22;63.65;;;;;;;;;;5143406;27;20125;-63
2021/06/29 07:06:57;;;;;;;67.25;60.60;;;;;;;;;;5140592;27;21750;-63
2021/06/29 07:09:24;;;;;;;69.90;59.28;;;;;;;;;;5137224;27;20051;-63
2021/06/29 07:11:50;;;;;;;63.55;56.75;;;;;;;;;;5103979;27;20035;-62
2021/06/29 07:14:17;;;;;;;74.55;66.50;;;;;;;;;;5127842;27;20053;-62
2021/06/29 07:16:43;;;;;;;67.20;59.92;;;;;;;;;;5125983;27;20394;-63
2021/06/29 07:19:09;;;;;;;72.22;64.35;;;;;;;;;;5122694;27;20553;-63
2021/06/29 07:21:36;;;;;;;77.97;69.72;;;;;;;;;;5122692;27;20023;-62
2021/06/29 07:24:02;;;;;;;91.97;77.13;;;;;;;;;;5106909;27;20081;-63
2021/06/29 07:26:28;;;;;;;84.63;76.53;;;;;;;;;;5124558;27;20080;-62
2021/06/29 07:28:55;;;;;;;89.20;80.70;;;;;;;;;;5126470;27;20031;-62
2021/06/29 07:31:21;;;;;;;86.90;77.70;;;;;;;;;;5124394;27;20027;-63
2021/06/29 07:33:47;;;;;;;90.00;80.70;;;;;;;;;;5123630;27;20039;-62
2021/06/29 07:36:15;;;;;;;86.93;78.38;;;;;;;;;;5124798;27;20038;-63
2021/06/29 07:38:41;;;;;;;81.60;73.20;;;;;;;;;;5124956;27;20110;-62
2021/06/29 07:41:07;;;;;;;82.47;74.03;;;;;;;;;;5123765;27;20035;-62
2021/06/29 07:43:33;;;;;;;91.80;78.65;;;;;;;;;;5124890;27;20015;-62
2021/06/29 07:45:59;;;;;;;90.18;81.13;;;;;;;;;;5116532;27;20058;-62
2021/06/29 07:48:26;;;;;;;101.75;92.25;;;;;;;;;;5125436;27;20031;-63
2021/06/29 07:50:52;;;;;;;102.03;91.88;;;;;;;;;;5120920;27;20034;-63
2021/06/29 07:53:18;;;;;;;95.40;86.75;;;;;;;;;;5123225;27;20116;-63
2021/06/29 07:55:44;;;;;;;87.43;79.00;;;;;;;;;;5122592;27;20023;-62
2021/06/29 07:58:10;;;;;;;77.53;69.13;;;;;;;;;;5122197;27;20441;-63
2021/06/29 08:00:36;;;;;;;78.45;70.38;;;;;;;;;;5123075;27;20034;-63
2021/06/29 08:03:03;;;;;;;84.40;76.20;;;;;;;;;;5119095;27;20062;-63
2021/06/29 08:05:29;;;;;;;80.85;73.57;;;;;;;;;;5105893;27;20023;-63
2021/06/29 08:07:56;;;;;;;71.97;65.68;;;;;;;;;;5122793;27;20497;-62
2021/06/29 08:10:22;;;;;;;74.93;66.82;;;;;;;;;;5106125;27;20063;-63
2021/06/29 08:12:48;;;;;;;76.22;68.30;;;;;;;;;;5119961;27;20048;-63
2021/06/29 08:15:15;;;;;;;75.65;67.82;;;;;;;;;;5120182;27;20027;-63
2021/06/29 08:17:41;;;;;;;77.30;69.97;;;;;;;;;;5123613;27;20031;-63
2021/06/29 08:20:08;;;;;;;86.00;78.35;;;;;;;;;;5120387;27;20016;-62
2021/06/29 08:22:34;;;;;;;75.55;68.07;;;;;;;;;;5122340;27;20113;-62
2021/06/29 08:25:00;;;;;;;80.00;72.55;;;;;;;;;;5122254;27;20019;-62
2021/06/29 08:27:26;;;;;;;93.05;84.65;;;;;;;;;;5100235;27;20069;-62
2021/06/29 08:29:56;;;;;;;91.53;83.78;;;;;;;;;;5113394;27;20122;-63
2021/06/29 08:32:22;;;;;;;91.07;83.93;;;;;;;;;;5095375;27;20485;-63
2021/06/29 08:34:48;;;;;;;93.95;85.50;;;;;;;;;;5116860;27;20119;-62
2021/06/29 08:37:14;;;;;;;91.93;84.00;;;;;;;;;;5114533;27;20035;-63
2021/06/29 08:39:41;;;;;;;86.18;78.78;;;;;;;;;;5115775;27;20027;-63
2021/06/29 08:42:07;;;;;;;82.57;74.90;;;;;;;;;;5123423;27;20028;-63
2021/06/29 08:44:33;;;;;;;89.68;80.85;;;;;;;;;;5118416;27;20140;-63
2021/06/29 08:46:59;;;;;;;96.72;88.38;;;;;;;;;;5118173;27;20015;-63
2021/06/29 08:49:25;;;;;;;85.85;77.80;;;;;;;;;;5127528;27;20079;-63
2021/06/29 08:51:52;;;;;;;83.95;75.60;;;;;;;;;;5094718;27;20024;-63
2021/06/29 08:54:19;;;;;;;81.50;74.05;;;;;;;;;;5115011;27;20026;-62
2021/06/29 08:56:46;;;;;;;77.88;70.40;;;;;;;;;;5112266;27;20043;-63
2021/06/29 08:59:12;;;;;;;87.38;79.18;;;;;;;;;;5114597;27;20027;-63
2021/06/29 09:01:38;;;;;;;77.40;70.05;;;;;;;;;;5127676;27;20018;-63
2021/06/29 09:04:04;;;;;;;76.65;61.33;;;;;;;;;;5113915;27;20032;-63
2021/06/29 09:06:35;;;;;;;72.68;55.10;;;;;;;;;;5125134;27;20024;-62
2021/06/29 09:09:21;;;;;;;72.57;59.10;;;;;;;;;;5124095;27;20554;-63
2021/06/29 09:11:47;;;;;;;70.38;59.95;;;;;;;;;;5115672;27;20031;-63
2021/06/29 09:14:16;;;;;;;65.75;58.58;;;;;;;;;;5111500;27;20019;-63
2021/06/29 09:16:43;;;;;;;67.05;56.35;;;;;;;;;;5126105;27;20023;-63
2021/06/29 09:19:09;;;;;;;69.32;57.55;;;;;;;;;;5111491;27;20464;-62
2021/06/29 09:21:38;;;;;;;74.90;53.78;;;;;;;;;;5125258;27;20019;-63
2021/06/29 09:24:05;;;;;;;70.65;45.70;;;;;;;;;;5125231;27;20031;-63
2021/06/29 09:26:31;;;;;;;56.40;44.65;;;;;;;;;;5111458;28;20032;-63
2021/06/29 09:29:01;;;;;;;63.28;40.03;;;;;;;;;;5116559;27;20027;-62
2021/06/29 09:31:28;;;;;;;60.95;41.83;;;;;;;;;;5120947;27;20200;-63
2021/06/29 09:33:56;;;;;;;64.78;38.40;;;;;;;;;;5115931;27;20026;-63
2021/06/29 09:36:26;;;;;;;53.85;35.05;;;;;;;;;;5111048;28;20032;-62
2021/06/29 09:38:53;;;;;;;61.45;32.22;;;;;;;;;;5120571;27;20115;-62
2021/06/29 09:41:21;;;;;;;53.03;36.42;;;;;;;;;;5121107;27;20110;-62
2021/06/29 09:43:48;;;;;;;50.38;34.42;;;;;;;;;;5114900;27;20004;-63
2021/06/29 09:46:15;;;;;;;54.45;31.73;;;;;;;;;;5112337;27;20015;-62
2021/06/29 09:48:49;;;;;;;57.75;32.83;;;;;;;;;;5111294;28;20381;-62
2021/06/29 09:51:17;;;;;;;58.05;28.15;;;;;;;;;;5125677;27;20019;-62
2021/06/29 09:53:44;;;;;;;56.33;39.10;;;;;;;;;;5117678;27;20016;-62
2021/06/29 09:56:11;;;;;;;69.55;41.58;;;;;;;;;;5124779;27;20019;-62
2021/06/29 09:58:38;;;;;;;66.97;42.28;;;;;;;;;;5118196;28;20028;-62
2021/06/29 10:01:04;;;;;;;67.28;30.73;;;;;;;;;;5112515;28;20084;-62
2021/06/29 10:03:37;;;;;;;44.72;28.75;;;;;;;;;;5108681;28;20027;-62
2021/06/29 10:06:10;;;;;;;45.90;27.50;;;;;;;;;;5118441;28;20050;-62
2021/06/29 10:08:39;;;;;;;51.80;37.00;;;;;;;;;;5111123;28;20044;-62
2021/06/29 10:11:14;;;;;;;66.95;30.27;;;;;;;;;;5114604;28;20023;-62
2021/06/29 10:13:45;;;;;;;53.53;28.88;;;;;;;;;;5130185;28;20059;-62
2021/06/29 10:16:12;;;;;;;47.78;29.35;;;;;;;;;;5112232;28;20051;-62
2021/06/29 10:18:40;;;;;;;46.72;24.95;;;;;;;;;;5111711;28;20111;-62
2021/06/29 10:21:19;;;;;;;48.45;26.52;;;;;;;;;;5111416;28;20020;-62
2021/06/29 10:23:45;;;;;;;45.45;25.10;;;;;;;;;;5128195;28;20104;-62
2021/06/29 10:26:12;;;;;;;41.92;26.83;;;;;;;;;;5130996;28;20023;-63
2021/06/29 10:28:38;;;;;;;54.72;27.25;;;;;;;;;;5131515;28;20502;-62
2021/06/29 10:31:05;;;;;;;42.10;24.40;;;;;;;;;;5115141;28;20037;-62
2021/06/29 10:33:32;;;;;;;47.70;25.17;;;;;;;;;;5119611;28;20007;-62
2021/06/29 10:35:58;;;;;;;48.20;28.50;;;;;;;;;;5125670;28;20033;-62
2021/06/29 10:38:24;;;;;;;42.72;26.55;;;;;;;;;;5126851;28;20031;-62
2021/06/29 10:40:51;;;;;;;46.42;25.75;;;;;;;;;;5095146;28;20031;-62
2021/06/29 10:43:18;;;;;;;45.22;26.15;;;;;;;;;;5107831;28;20016;-62
2021/06/29 10:45:46;;;;;;;38.13;21.17;;;;;;;;;;5112590;27;20106;-62
2021/06/29 10:48:21;;;;;;;37.50;16.92;;;;;;;;;;5133336;27;20016;-62
2021/06/29 10:50:48;;;;;;;42.30;17.83;;;;;;;;;;5115270;27;20023;-62
2021/06/29 10:53:33;;;;;;;44.75;18.25;;;;;;;;;;5130278;27;20027;-62
2021/06/29 10:56:00;;;;;;;47.03;18.50;;;;;;;;;;5125180;27;20038;-62
2021/06/29 10:58:35;;;;;;;38.80;17.92;;;;;;;;;;5123129;27;20123;-62
2021/06/29 11:01:20;;;;;;;42.85;19.63;;;;;;;;;;5098799;27;20016;-62
2021/06/29 11:03:47;;;;;;;50.63;19.80;;;;;;;;;;5105332;27;20051;-62
2021/06/29 11:06:13;;;;;;;44.63;19.77;;;;;;;;;;5122747;27;20102;-62
2021/06/29 11:08:46;;;;;;;41.97;19.88;;;;;;;;;;5130880;27;20046;-62
2021/06/29 11:11:13;;;;;;;42.53;21.92;;;;;;;;;;5129009;27;20023;-62
2021/06/29 11:13:43;;;;;;;48.85;21.90;;;;;;;;;;5112440;27;20471;-62
2021/06/29 11:16:09;;;;;;;39.40;19.90;;;;;;;;;;5127879;27;20030;-62
2021/06/29 11:18:39;;;;;;;46.17;20.52;;;;;;;;;;5098071;27;20051;-62
2021/06/29 11:21:06;;;;;;;65.97;21.75;;;;;;;;;;5095209;28;20542;-63
2021/06/29 11:23:36;;;;;;;43.47;20.83;;;;;;;;;;5111407;27;20016;-62
2021/06/29 11:26:16;;;;;;;55.42;22.05;;;;;;;;;;5116165;27;20019;-62
2021/06/29 11:28:49;;;;;;;49.50;21.90;;;;;;;;;;5129143;27;20026;-62
2021/06/29 11:31:31;;;;;;;47.75;21.48;;;;;;;;;;5131724;27;20027;-62
2021/06/29 11:34:03;;;;;;;45.25;22.42;;;;;;;;;;5118562;27;20012;-63
2021/06/29 11:36:29;;;;;;;57.03;24.20;;;;;;;;;;5133140;27;20043;-62
2021/06/29 11:38:55;;;;;;;48.13;22.77;;;;;;;;;;5114270;27;20027;-63
2021/06/29 11:41:25;;;;;;;43.33;21.80;;;;;;;;;;5111878;27;20223;-62
2021/06/29 11:44:11;;;;;;;46.80;21.27;;;;;;;;;;5132403;27;20039;-62
2021/06/29 11:46:52;;;;;;;41.13;21.52;;;;;;;;;;5106414;27;20031;-62
2021/06/29 11:49:27;;;;;;;42.15;19.85;;;;;;;;;;5132577;27;20110;-62
2021/06/29 11:51:54;;;;;;;52.53;22.25;;;;;;;;;;5114304;27;20038;-62
2021/06/29 11:54:33;;;;;;;43.75;20.05;;;;;;;;;;5117774;27;20032;-63
2021/06/29 11:57:14;;;;;;;42.03;20.60;;;;;;;;;;5105511;28;20031;-63
2021/06/29 11:59:40;;;;;;;48.83;21.20;;;;;;;;;;5112950;27;20031;-63
2021/06/29 12:02:11;;;;;;;50.90;22.25;;;;;;;;;;5100179;27;20026;-63
2021/06/29 12:04:52;;;;;;;38.17;19.35;;;;;;;;;;5112816;27;20019;-63
2021/06/29 12:07:28;;;;;;;44.47;22.63;;;;;;;;;;5112852;28;20027;-63
2021/06/29 12:09:54;;;;;;;47.67;19.90;;;;;;;;;;5113210;27;20039;-63
2021/06/29 12:12:25;;;;;;;36.38;20.65;;;;;;;;;;5116788;27;20088;-63
2021/06/29 12:15:05;;;;;;;35.42;18.02;;;;;;;;;;5112750;27;20510;-63
2021/06/29 12:17:31;;;;;;;33.92;19.58;;;;;;;;;;5095627;27;20100;-63
2021/06/29 12:20:03;;;;;;;42.45;18.98;;;;;;;;;;5111339;27;20030;-63
2021/06/29 12:22:33;;;;;;;31.50;16.80;;;;;;;;;;5094479;27;20030;-63
2021/06/29 12:25:00;;;;;;;37.70;19.75;;;;;;;;;;5120035;27;20079;-63
2021/06/29 12:27:26;;;;;;;41.17;19.45;;;;;;;;;;5131415;27;20023;-64
2021/06/29 12:29:52;;;;;;;42.05;20.65;;;;;;;;;;5119929;27;20032;-64
2021/06/29 12:32:19;;;;;;;43.95;21.15;;;;;;;;;;5115995;27;20027;-63
2021/06/29 12:34:47;;;;;;;39.08;19.58;;;;;;;;;;5093990;28;20084;-64
2021/06/29 12:37:13;;;;;;;40.83;19.83;;;;;;;;;;5113442;27;20051;-64
2021/06/29 12:39:39;;;;;;;41.15;22.13;;;;;;;;;;5114287;27;20030;-64
2021/06/29 12:42:09;;;;;;;46.30;23.02;;;;;;;;;;5129915;27;20096;-64
2021/06/29 12:44:35;;;;;;;44.15;24.20;;;;;;;;;;5132550;27;20031;-64
2021/06/29 12:47:03;;;;;;;43.17;24.10;;;;;;;;;;5103775;28;20110;-64
2021/06/29 12:49:32;;;;;;;48.67;24.40;;;;;;;;;;5112503;27;20034;-63
2021/06/29 12:52:09;;;;;;;41.95;21.65;;;;;;;;;;5109267;28;20123;-64
2021/06/29 12:54:36;;;;;;;38.78;21.58;;;;;;;;;;5129853;27;20050;-64
2021/06/29 12:57:04;;;;;;;45.63;21.25;;;;;;;;;;5132717;27;20046;-64
2021/06/29 12:59:35;;;;;;;43.95;21.63;;;;;;;;;;5111491;28;20095;-64
2021/06/29 13:02:10;;;;;;;44.90;22.23;;;;;;;;;;5109417;27;20023;-64
2021/06/29 13:04:45;;;;;;;44.10;20.95;;;;;;;;;;5107753;27;20034;-65
2021/06/29 13:07:13;;;;;;;53.63;25.83;;;;;;;;;;5124941;27;20033;-65
2021/06/29 13:09:40;;;;;;;45.25;26.42;;;;;;;;;;5114026;27;20050;-66
2021/06/29 13:12:14;;;;;;;44.38;27.27;;;;;;;;;;5091082;28;20031;-65
2021/06/29 13:14:51;;;;;;;40.78;23.67;;;;;;;;;;5113572;27;20028;-66
2021/06/29 13:17:19;;;;;;;36.80;22.63;;;;;;;;;;5130552;27;20496;-65
2021/06/29 13:19:45;;;;;;;41.47;21.35;;;;;;;;;;5122790;27;20547;-66
2021/06/29 13:22:12;;;;;;;42.85;22.15;;;;;;;;;;5128178;27;20019;-66
2021/06/29 13:24:48;;;;;;;35.45;20.77;;;;;;;;;;5100316;27;20012;-66
2021/06/29 13:27:23;;;;;;;37.10;20.63;;;;;;;;;;5118866;27;20023;-66
2021/06/29 13:29:58;;;;;;;52.30;23.27;;;;;;;;;;5112582;27;20049;-66
2021/06/29 13:32:24;;;;;;;38.58;23.60;;;;;;;;;;5127913;27;20048;-66
2021/06/29 13:34:59;;;;;;;43.85;21.75;;;;;;;;;;5113193;27;20040;-66
2021/06/29 13:37:26;;;;;;;45.13;21.60;;;;;;;;;;5093845;27;20119;-66
2021/06/29 13:39:52;;;;;;;37.92;18.48;;;;;;;;;;5111387;27;20035;-67
2021/06/29 13:42:23;;;;;;;37.65;17.48;;;;;;;;;;5089864;28;20032;-66
2021/06/29 13:44:55;;;;;;;45.35;20.67;;;;;;;;;;5111890;27;20388;-66
2021/06/29 13:47:21;;;;;;;38.22;20.38;;;;;;;;;;5121240;27;20057;-66
2021/06/29 13:50:05;;;;;;;39.28;19.60;;;;;;;;;;5113621;28;20011;-67
2021/06/29 13:52:31;;;;;;;44.03;21.30;;;;;;;;;;5103811;27;20034;-66
2021/06/29 13:55:08;;;;;;;42.15;21.65;;;;;;;;;;5120898;27;20437;-67
2021/06/29 13:57:34;;;;;;;48.72;23.50;;;;;;;;;;5118943;27;20023;-67
2021/06/29 14:00:00;;;;;;;49.50;22.55;;;;;;;;;;5120100;28;20040;-66
2021/06/29 14:02:30;;;;;;;42.75;22.83;;;;;;;;;;5118798;28;20046;-67
2021/06/29 14:04:56;;;;;;;49.03;23.92;;;;;;;;;;5100767;28;20103;-66
2021/06/29 14:07:22;;;;;;;45.00;25.30;;;;;;;;;;5114684;28;20354;-66
2021/06/29 14:09:48;;;;;;;61.40;26.55;;;;;;;;;;5118886;28;20039;-66
2021/06/29 14:12:22;;;;;;;59.20;25.95;;;;;;;;;;5115892;28;20043;-66
2021/06/29 14:14:48;;;;;;;61.85;24.00;;;;;;;;;;5097483;28;20575;-66
2021/06/29 14:17:14;;;;;;;51.47;26.92;;;;;;;;;;5120795;28;20027;-67
2021/06/29 14:19:40;;;;;;;44.88;23.58;;;;;;;;;;5122960;27;20027;-66
2021/06/29 14:22:16;;;;;;;41.67;24.73;;;;;;;;;;5120900;27;20024;-66
2021/06/29 14:24:43;;;;;;;37.45;23.45;;;;;;;;;;5122527;27;20110;-67
2021/06/29 14:27:09;;;;;;;46.92;24.10;;;;;;;;;;5126726;27;20035;-66
2021/06/29 14:29:37;;;;;;;41.33;20.42;;;;;;;;;;5124409;27;20106;-67